Time;durP1;ratioP1;P1;durP2;ratioP2;P2;SDS_P1;SDS_P2;PMS_P1;PMS_P2;Temp;Humidity;BMP_temperature;BMP_pressure;BME280_temperature;BME280_humidity;BME280_pressure;Samples;Min_cycle;Max_cycle;Signal;HPM_P1;HPM_P2
2022/09/15 04:17:57;;;;;;;3.78;2.33;;;;;;;17.84;100.00;99146.81;4935584;29;20078;-73
2022/09/15 04:20:22;;;;;;;2.80;1.38;;;;;;;17.82;100.00;99146.25;4951378;29;20048;-73
2022/09/15 04:22:48;;;;;;;3.78;1.75;;;;;;;17.83;100.00;99145.19;4936980;29;20046;-73
2022/09/15 04:25:13;;;;;;;6.75;1.83;;;;;;;17.84;100.00;99146.81;4937346;29;20402;-73
2022/09/15 04:27:38;;;;;;;4.15;2.42;;;;;;;17.73;100.00;99137.75;4956121;28;20035;-73
2022/09/15 04:30:06;;;;;;;4.00;2.30;;;;;;;17.73;100.00;99145.03;4956232;28;20530;-73
2022/09/15 04:32:31;;;;;;;;;;;;;;;17.71;100.00;99144.44;4956278;29;20066;-73
2022/09/15 04:34:57;;;;;;;4.78;1.63;;;;;;;17.69;100.00;99141.19;4955912;29;20005;-73
2022/09/15 04:37:22;;;;;;;4.70;2.20;;;;;;;17.64;100.00;99136.53;4955953;28;20063;-73
2022/09/15 04:39:48;;;;;;;4.95;1.70;;;;;;;17.64;100.00;99139.22;4954501;29;20512;-73
2022/09/15 04:42:14;;;;;;;3.72;1.65;;;;;;;17.59;100.00;99137.25;4955570;28;20064;-73
2022/09/15 04:44:39;;;;;;;4.63;1.73;;;;;;;17.56;100.00;99143.13;4955711;29;20650;-74
2022/09/15 04:47:05;;;;;;;7.13;2.13;;;;;;;17.59;100.00;99139.13;4955618;28;20039;-73
2022/09/15 04:49:31;;;;;;;5.38;1.90;;;;;;;17.59;100.00;99145.31;4955704;29;20095;-73
2022/09/15 04:51:57;;;;;;;5.47;2.22;;;;;;;17.59;100.00;99153.41;4955315;29;20035;-73
2022/09/15 04:54:22;;;;;;;3.50;1.60;;;;;;;17.55;100.00;99149.59;4955530;29;20035;-73
2022/09/15 04:56:48;;;;;;;3.28;1.83;;;;;;;17.56;100.00;99151.22;4955421;29;20399;-73
2022/09/15 04:59:15;;;;;;;3.35;1.90;;;;;;;17.55;100.00;99152.28;4955317;29;20079;-74
2022/09/15 05:01:41;;;;;;;3.22;1.63;;;;;;;17.54;100.00;99155.19;4955084;29;20039;-73
2022/09/15 05:04:07;;;;;;;4.95;1.88;;;;;;;17.52;100.00;99160.03;4955235;28;20093;-72
2022/09/15 05:06:33;;;;;;;3.42;1.75;;;;;;;17.50;100.00;99159.44;4955273;29;20051;-72
2022/09/15 05:08:59;;;;;;;6.88;1.77;;;;;;;17.43;100.00;99167.69;4955268;29;20173;-73
2022/09/15 05:11:25;;;;;;;7.20;1.80;;;;;;;17.42;100.00;99170.63;4955024;29;20043;-72
2022/09/15 05:13:51;;;;;;;4.20;1.75;;;;;;;17.36;100.00;99164.34;4955208;29;20055;-72
2022/09/15 05:16:19;;;;;;;5.30;1.88;;;;;;;17.34;100.00;99166.44;4953745;28;20046;-73
2022/09/15 05:18:46;;;;;;;4.70;1.60;;;;;;;17.32;100.00;99168.56;4954878;28;20043;-73
2022/09/15 05:21:14;;;;;;;4.90;1.73;;;;;;;17.33;100.00;99162.94;4954712;29;20577;-73
2022/09/15 05:23:40;;;;;;;6.22;1.83;;;;;;;17.32;100.00;99165.88;4955144;28;20047;-73
2022/09/15 05:26:10;;;;;;;4.32;2.05;;;;;;;17.30;100.00;99165.31;4954916;29;20039;-73
2022/09/15 05:28:36;;;;;;;3.00;1.65;;;;;;;17.33;100.00;99170.19;4955193;29;20055;-73
2022/09/15 05:31:10;;;;;;;3.90;1.77;;;;;;;17.31;100.00;99173.13;4953719;28;20491;-75
2022/09/15 05:33:36;;;;;;;8.38;2.05;;;;;;;17.33;100.00;99164.81;4954946;29;20510;-74
2022/09/15 05:36:02;;;;;;;2.55;1.55;;;;;;;17.33;100.00;99170.19;4954825;29;20042;-75
2022/09/15 05:38:30;;;;;;;2.95;1.63;;;;;;;17.32;100.00;99165.88;4954722;29;20043;-62
2022/09/15 05:41:07;;;;;;;4.55;1.88;;;;;;;17.30;100.00;99158.06;4954576;29;20039;-60
2022/09/15 05:43:34;;;;;;;4.40;1.97;;;;;;;17.33;100.00;99162.94;4954818;29;20591;-60
2022/09/15 05:46:00;;;;;;;2.47;1.80;;;;;;;17.39;100.00;99166.53;4954484;28;20378;-61
2022/09/15 05:48:26;;;;;;;3.65;1.85;;;;;;;17.38;100.00;99172.97;4954399;29;20082;-56
2022/09/15 05:50:54;;;;;;;3.28;1.88;;;;;;;17.40;100.00;99172.72;4954085;28;20042;-59
2022/09/15 05:53:20;;;;;;;3.10;1.73;;;;;;;17.41;100.00;99180.59;4954254;28;20077;-61
2022/09/15 05:55:45;;;;;;;3.63;1.60;;;;;;;17.41;100.00;99188.66;4952759;28;20043;-61
2022/09/15 05:58:12;;;;;;;3.83;1.90;;;;;;;17.41;100.00;99191.34;4954315;28;20062;-59
2022/09/15 06:00:37;;;;;;;4.10;2.47;;;;;;;17.41;100.00;99188.66;4953967;29;20039;-60
2022/09/15 06:03:02;;;;;;;3.63;1.95;;;;;;;17.38;100.00;99183.75;4954263;28;20458;-59
2022/09/15 06:05:28;;;;;;;5.35;1.83;;;;;;;17.40;100.00;99186.19;4954049;29;20186;-59
2022/09/15 06:07:54;;;;;;;3.05;1.60;;;;;;;17.39;100.00;99192.63;4954125;28;20042;-59
2022/09/15 06:10:24;;;;;;;5.22;3.38;;;;;;;17.40;100.00;99192.38;4953756;28;20613;-58
2022/09/15 06:12:53;;;;;;;4.43;2.38;;;;;;;17.38;100.00;99188.31;4954063;29;20094;-63
2022/09/15 06:15:20;;;;;;;5.38;2.13;;;;;;;17.45;100.00;99188.97;4953492;28;20070;-63
2022/09/15 06:17:45;;;;;;;4.65;2.28;;;;;;;17.41;100.00;99187.81;4954074;28;20114;-63
2022/09/15 06:20:11;;;;;;;8.95;4.22;;;;;;;17.43;100.00;99189.22;4953894;28;20118;-64
2022/09/15 06:22:36;;;;;;;5.25;2.17;;;;;;;17.45;100.00;99203.25;4968778;28;20473;-64
2022/09/15 06:25:02;;;;;;;4.13;1.80;;;;;;;17.42;100.00;99187.59;4953954;28;20058;-63
2022/09/15 06:27:27;;;;;;;4.65;1.60;;;;;;;17.42;100.00;99192.97;4954073;28;20066;-62
2022/09/15 06:29:53;;;;;;;3.10;1.85;;;;;;;17.45;100.00;99195.19;4953865;28;20039;-61
2022/09/15 06:32:18;;;;;;;2.42;1.63;;;;;;;17.47;100.00;99206.50;4952246;28;20149;-63
2022/09/15 06:34:44;;;;;;;3.22;1.75;;;;;;;17.42;100.00;99205.63;4953752;28;20168;-62
2022/09/15 06:37:10;;;;;;;4.75;1.85;;;;;;;17.45;100.00;99205.13;4953667;29;20062;-63
2022/09/15 06:39:36;;;;;;;5.72;1.60;;;;;;;17.43;100.00;99202.69;4953752;29;20039;-63
2022/09/15 06:42:02;;;;;;;6.25;1.50;;;;;;;17.43;100.00;99205.38;4953554;29;20058;-64
2022/09/15 06:44:27;;;;;;;2.17;1.50;;;;;;;17.43;100.00;99216.16;4953708;29;20086;-64
2022/09/15 06:46:53;;;;;;;1.92;1.27;;;;;;;17.47;100.00;99209.19;4953732;29;20411;-63
2022/09/15 06:49:20;;;;;;;4.25;1.40;;;;;;;17.46;100.00;99218.34;4951628;29;20043;-64
2022/09/15 06:51:46;;;;;;;4.32;1.83;;;;;;;17.45;100.00;99205.13;4952467;29;20557;-64
2022/09/15 06:54:13;;;;;;;3.33;1.67;;;;;;;17.42;100.00;99208.31;4953357;28;20067;-64
2022/09/15 06:56:38;;;;;;;3.25;1.80;;;;;;;17.48;100.00;99210.84;4953436;29;20063;-63
2022/09/15 06:59:04;;;;;;;2.92;1.50;;;;;;;17.47;100.00;99216.47;4967997;28;20046;-64
2022/09/15 07:01:31;;;;;;;3.10;1.50;;;;;;;17.41;100.00;99225.50;4952392;28;20070;-64
2022/09/15 07:03:59;;;;;;;3.43;2.10;;;;;;;17.42;100.00;99214.50;4953214;29;20031;-63
2022/09/15 07:06:29;;;;;;;1.73;1.35;;;;;;;17.42;100.00;99211.81;4953117;29;20297;-64
2022/09/15 07:08:56;;;;;;;4.10;1.75;;;;;;;17.44;100.00;99214.25;4952024;29;20039;-63
2022/09/15 07:11:21;;;;;;;1.77;1.40;;;;;;;17.39;100.00;99217.69;4952347;28;20043;-64
2022/09/15 07:13:47;;;;;;;2.83;1.20;;;;;;;17.36;100.00;99219.00;4952843;29;20090;-63
2022/09/15 07:16:13;;;;;;;2.65;1.58;;;;;;;17.36;100.00;99218.19;4952837;29;20035;-62
2022/09/15 07:18:39;;;;;;;2.63;1.50;;;;;;;17.30;100.00;99213.75;4953037;29;20391;-63
2022/09/15 07:21:07;;;;;;;1.80;1.20;;;;;;;17.26;100.00;99223.38;4951924;29;20113;-64
2022/09/15 07:23:34;;;;;;;2.70;1.67;;;;;;;17.26;100.00;99228.75;4953097;29;20039;-64
2022/09/15 07:26:14;;;;;;;3.85;1.77;;;;;;;17.33;100.00;99250.94;4952864;28;20142;-65
2022/09/15 07:28:42;;;;;;;1.83;1.33;;;;;;;17.32;100.00;99263.59;4956906;29;20479;-64
2022/09/15 07:31:10;;;;;;;4.47;1.77;;;;;;;17.13;100.00;99277.47;4956032;29;20129;-64
2022/09/15 07:33:36;;;;;;;5.32;2.35;;;;;;;16.87;100.00;99276.94;4956578;29;20035;-64
2022/09/15 07:36:04;;;;;;;7.93;2.85;;;;;;;16.73;100.00;99286.34;4956633;29;20031;-64
2022/09/15 07:38:29;;;;;;;7.43;3.08;;;;;;;16.58;100.00;99302.13;4956751;29;20039;-64
2022/09/15 07:41:02;;;;;;;6.60;3.55;;;;;;;16.55;100.00;99304.19;4956109;28;20405;-64
2022/09/15 07:43:27;;;;;;;9.25;3.40;;;;;;;16.52;100.00;99306.56;4956665;29;20031;-63
2022/09/15 07:45:56;;;;;;;12.52;4.03;;;;;;;16.27;100.00;99312.16;4955275;28;20114;-64
2022/09/15 07:48:22;;;;;;;8.05;3.53;;;;;;;16.07;100.00;99306.31;4956452;29;20047;-63
2022/09/15 07:50:47;;;;;;;6.72;3.60;;;;;;;15.91;100.00;99303.25;4955600;29;20035;-64
2022/09/15 07:53:13;;;;;;;8.13;3.65;;;;;;;15.73;100.00;99301.44;4956286;28;20467;-64
2022/09/15 07:55:38;;;;;;;6.50;3.42;;;;;;;15.71;100.00;99318.81;4956277;29;20115;-64
2022/09/15 07:58:03;;;;;;;7.65;3.97;;;;;;;15.63;100.00;99330.69;4956492;29;20511;-63
2022/09/15 08:00:29;;;;;;;9.43;4.00;;;;;;;15.50;100.00;99332.72;4955324;29;20039;-64
2022/09/15 08:02:55;;;;;;;7.75;3.53;;;;;;;15.62;100.00;99342.50;4956402;29;20038;-64
2022/09/15 08:05:24;;;;;;;7.10;3.90;;;;;;;15.57;100.00;99346.88;4955876;29;20045;-64
2022/09/15 08:07:50;;;;;;;8.57;3.88;;;;;;;15.62;100.00;99345.16;4956428;29;20042;-63
2022/09/15 08:10:15;;;;;;;8.30;3.45;;;;;;;15.56;100.00;99339.88;4955106;28;20035;-65
2022/09/15 08:12:41;;;;;;;9.05;3.70;;;;;;;15.47;100.00;99347.41;4956307;28;20054;-63
2022/09/15 08:15:06;;;;;;;8.57;3.53;;;;;;;15.32;100.00;99337.09;4956319;28;20054;-63
2022/09/15 08:17:33;;;;;;;6.95;2.90;;;;;;;15.46;100.00;99343.09;4956059;28;20498;-63
2022/09/15 08:19:59;;;;;;;7.45;3.40;;;;;;;15.47;100.00;99342.88;4956065;28;20039;-63
2022/09/15 08:22:24;;;;;;;6.88;3.38;;;;;;;15.54;100.00;99350.00;4956034;28;20129;-63
2022/09/15 08:24:49;;;;;;;4.45;2.25;;;;;;;15.53;100.00;99345.69;4956196;29;20055;-63
2022/09/15 08:27:15;;;;;;;8.18;2.83;;;;;;;15.48;100.00;99349.06;4970942;28;20117;-63
2022/09/15 08:29:40;;;;;;;4.43;2.55;;;;;;;15.42;100.00;99358.00;4955968;28;20510;-62
2022/09/15 08:32:06;;;;;;;8.65;3.92;;;;;;;15.47;100.00;99369.69;4955783;28;20070;-63
2022/09/15 08:34:31;;;;;;;5.10;2.92;;;;;;;15.31;100.00;99370.31;4954743;29;20039;-63
2022/09/15 08:36:56;;;;;;;4.60;2.50;;;;;;;15.31;100.00;99372.16;4955982;28;20039;-63
2022/09/15 08:39:22;;;;;;;7.80;2.80;;;;;;;15.42;100.00;99385.66;4955440;28;20051;-63
2022/09/15 08:41:51;;;;;;;5.40;2.92;;;;;;;15.40;100.00;99386.94;4955603;28;20080;-63
2022/09/15 08:44:39;;;;;;;7.13;2.72;;;;;;;15.37;100.00;99400.78;4955800;28;20047;-63
2022/09/15 08:47:23;;;;;;;6.10;3.05;;;;;;;15.42;100.00;99399.06;4955723;28;20039;-62
2022/09/15 08:50:14;;;;;;;7.10;3.60;;;;;;;15.32;100.00;99406.84;4955739;28;20383;-64
2022/09/15 08:52:42;;;;;;;7.57;3.38;;;;;;;15.33;100.00;99403.13;4970251;28;20042;-64
2022/09/15 08:55:19;;;;;;;12.25;3.53;;;;;;;15.18;100.00;99406.16;4955458;28;20486;-64
2022/09/15 08:57:44;;;;;;;7.22;3.35;;;;;;;15.18;100.00;99411.53;4955577;28;20053;-64
2022/09/15 09:00:15;;;;;;;10.15;3.75;;;;;;;15.19;100.00;99417.69;4955466;28;20043;-65
2022/09/15 09:02:58;;;;;;;7.03;3.95;;;;;;;15.12;100.00;99431.19;4955317;28;20475;-64
2022/09/15 09:05:45;;;;;;;6.07;3.33;;;;;;;15.15;100.00;99430.75;4970357;28;20086;-64
2022/09/15 09:08:20;;;;;;;10.05;3.95;;;;;;;15.15;100.00;99419.22;4955431;28;20494;-64
2022/09/15 09:11:04;;;;;;;8.43;4.18;;;;;;;15.15;100.00;99416.53;4954987;28;20041;-64
2022/09/15 09:14:05;;;;;;;10.50;3.70;;;;;;;15.12;100.00;99415.09;4953974;29;20042;-63
2022/09/15 09:16:56;;;;;;;6.72;3.30;;;;;;;15.09;100.00;99414.72;4954949;28;20035;-64
2022/09/15 09:19:33;;;;;;;9.45;3.58;;;;;;;14.92;100.00;99423.34;4955043;28;20055;-63
2022/09/15 09:22:08;;;;;;;6.28;3.53;;;;;;;14.95;100.00;99418.59;4954879;28;20042;-65
2022/09/15 09:24:40;;;;;;;9.90;3.47;;;;;;;15.00;100.00;99426.81;4955082;28;20124;-62
2022/09/15 09:27:12;;;;;;;8.23;3.60;;;;;;;14.95;100.00;99430.13;4955191;28;20177;-63
2022/09/15 09:29:50;;;;;;;6.82;3.13;;;;;;;14.83;100.00;99448.00;4955087;28;20039;-62
2022/09/15 09:32:23;;;;;;;7.40;3.45;;;;;;;14.74;100.00;99452.81;4954824;28;20035;-64
2022/09/15 09:35:02;;;;;;;7.68;3.35;;;;;;;14.74;100.00;99444.78;4953664;29;20422;-64
2022/09/15 09:37:28;;;;;;;4.32;2.92;;;;;;;14.65;100.00;99449.56;4954874;28;20380;-63
2022/09/15 09:39:53;;;;;;;5.28;3.00;;;;;;;14.68;100.00;99451.00;4954604;28;20086;-63
2022/09/15 09:42:23;;;;;;;7.03;3.17;;;;;;;14.62;100.00;99454.56;4954506;28;20035;-64
2022/09/15 09:44:48;;;;;;;9.77;3.25;;;;;;;14.56;100.00;99453.56;4954679;28;20407;-64
2022/09/15 09:47:14;;;;;;;5.55;2.67;;;;;;;14.62;100.00;99465.28;4954617;28;20041;-64
2022/09/15 09:49:46;;;;;;;4.80;2.95;;;;;;;14.55;100.00;99459.97;4953948;28;20189;-64
2022/09/15 09:52:11;;;;;;;9.02;3.70;;;;;;;14.58;100.00;99458.72;4954350;28;20058;-64
2022/09/15 09:54:37;;;;;;;5.65;3.22;;;;;;;14.62;100.00;99465.28;4954693;28;20485;-64
2022/09/15 09:57:11;;;;;;;7.50;3.20;;;;;;;14.67;100.00;99465.47;4953262;29;20496;-64
2022/09/15 09:59:37;;;;;;;5.45;2.65;;;;;;;14.69;100.00;99458.00;4953228;28;20130;-64
2022/09/15 10:02:17;;;;;;;6.45;3.22;;;;;;;14.67;100.00;99465.47;4968876;28;20113;-63
2022/09/15 10:04:46;;;;;;;7.80;3.30;;;;;;;14.63;100.00;99462.38;4954394;28;20047;-64
2022/09/15 10:07:14;;;;;;;4.82;2.85;;;;;;;14.76;100.00;99463.31;4969140;28;20054;-64
2022/09/15 10:09:49;;;;;;;5.85;3.00;;;;;;;14.76;100.00;99460.63;4954278;29;20058;-64
2022/09/15 10:12:30;;;;;;;8.05;3.08;;;;;;;14.82;100.00;99455.22;4954042;28;20542;-64
2022/09/15 10:15:00;;;;;;;7.28;3.35;;;;;;;14.70;100.00;99448.09;4954122;28;20106;-64
2022/09/15 10:17:47;;;;;;;9.98;3.55;;;;;;;14.74;100.00;99458.19;4953993;28;20039;-63
2022/09/15 10:20:44;;;;;;;7.22;3.85;;;;;;;14.71;100.00;99455.09;4953565;28;20074;-63
2022/09/15 10:23:15;;;;;;;5.72;3.40;;;;;;;14.62;100.00;99449.19;4953969;28;20046;-64
2022/09/15 10:25:41;;;;;;;9.52;3.55;;;;;;;14.77;100.00;99452.38;4953826;28;20465;-63
2022/09/15 10:28:17;;;;;;;8.63;3.65;;;;;;;14.87;100.00;99460.75;4953802;28;20059;-64
2022/09/15 10:31:02;;;;;;;5.32;3.25;;;;;;;14.91;100.00;99466.47;4953955;28;20062;-64
2022/09/15 10:33:31;;;;;;;9.32;3.33;;;;;;;14.98;100.00;99474.44;4953872;28;20039;-63
2022/09/15 10:36:13;;;;;;;9.75;3.10;;;;;;;15.08;100.00;99469.41;4953808;28;20095;-64
2022/09/15 10:38:52;;;;;;;8.70;3.47;;;;;;;15.18;100.00;99469.72;4953680;28;20042;-63
2022/09/15 10:41:26;;;;;;;7.22;3.38;;;;;;;15.26;100.00;99460.56;4953626;28;20072;-63
2022/09/15 10:44:34;;;;;;;7.57;4.15;;;;;;;15.28;100.00;99464.66;4953823;28;20043;-64
2022/09/15 10:47:18;;;;;;;8.32;2.90;;;;;;;15.20;100.00;99467.66;4953577;28;20402;-64
2022/09/15 10:50:19;;;;;;;7.28;2.75;;;;;;;15.22;100.00;99468.25;4953574;28;20042;-64
2022/09/15 10:52:54;;;;;;;6.03;2.80;;;;;;;15.31;100.00;99471.44;4951421;29;20051;-64
2022/09/15 10:55:30;;;;;;;4.88;2.85;;;;;;;15.26;100.00;99472.13;4953535;28;20062;-64
2022/09/15 10:58:33;;;;;;;7.25;3.15;;;;;;;15.28;100.00;99479.94;4953570;28;20114;-64
2022/09/15 11:01:23;;;;;;;5.75;2.42;;;;;;;15.32;100.00;99476.63;4953089;28;20039;-64
2022/09/15 11:04:17;;;;;;;3.83;2.22;;;;;;;15.42;100.00;99470.72;4953454;28;20042;-64
2022/09/15 11:06:45;;;;;;;4.38;2.67;;;;;;;15.52;100.00;99476.38;4953429;28;20043;-63
2022/09/15 11:09:16;;;;;;;5.80;2.58;;;;;;;15.56;100.00;99474.06;4954106;28;20122;-63
2022/09/15 11:12:01;;;;;;;6.40;2.92;;;;;;;15.63;100.00;99480.22;4953238;28;20043;-63
2022/09/15 11:14:49;;;;;;;4.20;2.60;;;;;;;15.56;100.00;99482.13;4953327;28;20121;-64
2022/09/15 11:17:14;;;;;;;;;;;;;;;15.71;100.00;99491.47;4953574;28;20035;-61
2022/09/15 11:19:54;;;;;;;4.93;2.60;;;;;;;15.77;100.00;99492.41;4953233;28;19929;-64
2022/09/15 11:22:27;;;;;;;9.32;3.03;;;;;;;15.63;100.00;99497.13;4953059;28;20071;-65
2022/09/15 11:24:58;;;;;;;6.10;3.00;;;;;;;15.72;100.00;99494.97;4953284;28;20498;-64
2022/09/15 11:27:30;;;;;;;5.53;3.05;;;;;;;15.74;100.00;99491.03;4952569;28;20035;-63
2022/09/15 11:30:01;;;;;;;5.70;3.10;;;;;;;15.74;100.00;99490.19;4947421;28;20031;-64
2022/09/15 11:32:33;;;;;;;6.22;3.03;;;;;;;15.76;100.00;99488.09;4950251;28;20038;-64
2022/09/15 11:35:25;;;;;;;4.65;3.22;;;;;;;16.00;100.00;99491.72;4944547;29;20059;-63
2022/09/15 11:37:55;;;;;;;6.30;3.10;;;;;;;16.12;100.00;99481.03;4943575;28;20162;-63
2022/09/15 11:40:54;;;;;;;5.30;3.25;;;;;;;16.21;100.00;99485.84;4943409;29;20545;-64
2022/09/15 11:43:54;;;;;;;8.13;3.50;;;;;;;16.25;100.00;99497.81;4943483;29;20031;-64
2022/09/15 11:46:30;;;;;;;6.68;3.35;;;;;;;16.33;100.00;99499.34;4939341;29;20055;-63
2022/09/15 11:49:19;;;;;;;8.00;3.90;;;;;;;16.39;100.00;99514.56;4943671;29;20036;-64
2022/09/15 11:52:10;;;;;;;6.13;3.42;;;;;;;16.34;100.00;99511.72;4945491;29;20047;-64
2022/09/15 11:54:45;;;;;;;7.95;3.85;;;;;;;16.28;100.00;99513.44;4943910;29;20083;-64
2022/09/15 11:57:20;;;;;;;8.15;3.72;;;;;;;16.36;100.00;99509.63;4947212;29;20035;-63
2022/09/15 12:00:01;;;;;;;6.30;3.50;;;;;;;16.43;100.00;99521.13;4941714;29;20446;-64
2022/09/15 12:02:35;;;;;;;11.82;4.18;;;;;;;16.54;100.00;99520.31;4943708;28;20561;-62
2022/09/15 12:05:20;;;;;;;8.90;4.70;;;;;;;16.91;100.00;99528.28;4946918;29;20051;-63
2022/09/15 12:08:15;;;;;;;6.07;3.85;;;;;;;17.40;100.00;99526.19;4942389;29;20043;-63
2022/09/15 12:10:47;;;;;;;9.80;4.07;;;;;;;17.68;100.00;99522.75;4924634;29;20058;-64
2022/09/15 12:13:18;;;;;;;10.80;4.10;;;;;;;18.06;100.00;99535.72;4946215;29;20036;-64
2022/09/15 12:15:46;;;;;;;8.18;4.05;;;;;;;18.11;100.00;99530.41;4946397;29;20035;-64
2022/09/15 12:18:31;;;;;;;6.28;3.33;;;;;;;18.27;100.00;99539.63;4945160;29;20035;-64
2022/09/15 12:21:27;;;;;;;6.88;3.67;;;;;;;18.27;100.00;99538.81;4945256;29;20080;-64
2022/09/15 12:24:03;;;;;;;9.23;4.38;;;;;;;18.14;100.00;99545.28;4946178;29;20376;-65
2022/09/15 12:26:31;;;;;;;16.65;5.88;;;;;;;18.46;97.74;99542.94;4947373;29;20430;-64
2022/09/15 12:29:03;;;;;;;6.05;4.15;;;;;;;18.62;98.87;99547.53;4945100;28;20039;-65
2022/09/15 12:31:36;;;;;;;8.82;4.68;;;;;;;18.69;100.00;99548.22;4947821;28;20113;-64
2022/09/15 12:34:23;;;;;;;8.10;4.88;;;;;;;19.35;97.68;99556.59;4943848;29;21036;-64
2022/09/15 12:36:52;;;;;;;7.18;4.28;;;;;;;19.48;90.10;99556.25;4946689;29;20031;-64
2022/09/15 12:39:23;;;;;;;11.45;4.05;;;;;;;19.50;91.84;99561.41;4950330;28;20666;-64
2022/09/15 12:41:54;;;;;;;7.50;4.88;;;;;;;19.40;94.27;99553.97;4950152;28;20414;-64
2022/09/15 12:45:00;;;;;;;5.55;3.63;;;;;;;19.08;94.07;99553.75;4949554;29;20039;-64
2022/09/15 12:47:34;;;;;;;9.27;5.37;;;;;;;19.14;95.59;99555.47;4909374;29;20134;-63
2022/09/15 12:50:14;;;;;;;12.55;4.78;;;;;;;19.45;91.09;99567.56;4941590;29;20054;-63
2022/09/15 12:53:01;;;;;;;6.85;4.03;;;;;;;20.33;86.09;99554.09;4947864;28;20055;-64
2022/09/15 12:55:36;;;;;;;5.40;3.42;;;;;;;21.25;81.86;99554.97;4948049;29;20047;-61
2022/09/15 12:58:14;;;;;;;4.63;3.08;;;;;;;21.87;78.08;99557.84;4947315;28;20041;-63
2022/09/15 13:00:44;;;;;;;6.35;3.30;;;;;;;22.14;72.30;99546.03;4945216;28;20035;-63
2022/09/15 13:03:27;;;;;;;4.68;3.13;;;;;;;22.77;72.00;99551.34;4955682;28;20414;-63
2022/09/15 13:06:32;;;;;;;4.38;3.10;;;;;;;22.74;74.74;99548.06;4955345;29;20035;-63
2022/09/15 13:09:01;;;;;;;5.87;3.50;;;;;;;23.37;66.21;99547.81;4955407;29;20031;-63
2022/09/15 13:11:35;;;;;;;4.07;2.90;;;;;;;23.69;67.54;99544.00;4954978;28;20287;-63
2022/09/15 13:14:07;;;;;;;5.13;3.20;;;;;;;23.96;67.55;99546.34;4955314;29;20038;-63
2022/09/15 13:16:38;;;;;;;4.90;2.70;;;;;;;24.46;67.87;99542.59;4955183;29;20039;-60
2022/09/15 13:19:19;;;;;;;4.10;2.65;;;;;;;25.02;59.87;99549.53;4954954;28;20043;-64
2022/09/15 13:22:12;;;;;;;2.97;2.30;;;;;;;24.47;59.40;99549.66;4954731;28;20102;-61
2022/09/15 13:24:52;;;;;;;4.63;2.45;;;;;;;24.14;58.47;99553.06;4952637;28;20126;-60
2022/09/15 13:27:22;;;;;;;4.45;2.40;;;;;;;23.65;58.97;99551.06;4954956;28;20061;-61
2022/09/15 13:30:08;;;;;;;2.50;2.20;;;;;;;23.76;58.72;99550.75;4954845;28;20039;-60
2022/09/15 13:32:49;;;;;;;3.63;2.38;;;;;;;23.86;62.05;99549.09;4954834;28;20039;-60
2022/09/15 13:35:39;;;;;;;2.83;1.80;;;;;;;23.33;63.25;99548.63;4955016;28;20082;-61
2022/09/15 13:38:22;;;;;;;4.85;2.03;;;;;;;22.75;64.55;99538.03;4954885;28;20031;-61
2022/09/15 13:41:18;;;;;;;3.67;2.17;;;;;;;22.74;66.61;99529.06;4954641;28;20383;-61
2022/09/15 13:43:58;;;;;;;4.07;2.20;;;;;;;23.16;63.49;99532.66;4954923;28;20035;-61
2022/09/15 13:46:43;;;;;;;3.13;2.28;;;;;;;23.50;59.84;99530.13;4954772;28;20035;-61
2022/09/15 13:49:43;;;;;;;3.10;1.90;;;;;;;23.59;57.46;99527.66;4954669;29;20035;-61
2022/09/15 13:52:17;;;;;;;2.88;1.63;;;;;;;23.89;59.18;99522.16;4954310;29;20045;-62
2022/09/15 13:55:13;;;;;;;3.10;1.80;;;;;;;23.33;58.40;99519.56;4954671;29;20039;-61
2022/09/15 13:57:44;;;;;;;2.28;1.60;;;;;;;22.95;62.37;99515.53;4954466;28;20094;-62
2022/09/15 14:00:23;;;;;;;3.55;2.13;;;;;;;22.66;66.38;99513.31;4954169;29;20454;-62
2022/09/15 14:02:53;;;;;;;3.15;1.70;;;;;;;22.00;64.36;99507.72;4954448;28;20174;-62
2022/09/15 14:05:20;;;;;;;1.95;1.52;;;;;;;21.68;64.36;99513.28;4944562;29;20484;-62
2022/09/15 14:07:59;;;;;;;3.10;1.58;;;;;;;21.03;67.03;99512.59;4935293;29;20027;-61
2022/09/15 14:10:29;;;;;;;3.67;1.80;;;;;;;20.78;70.43;99510.47;4934855;29;20039;-63
2022/09/15 14:12:58;;;;;;;2.30;1.23;;;;;;;20.84;71.89;99501.34;4935193;29;20039;-62
2022/09/15 14:15:25;;;;;;;2.50;1.40;;;;;;;20.61;75.44;99506.28;4934793;29;20406;-62
2022/09/15 14:17:50;;;;;;;2.53;1.73;;;;;;;20.48;72.58;99505.63;4935214;29;20040;-61
2022/09/15 14:20:31;;;;;;;2.85;1.60;;;;;;;20.38;72.99;99501.97;4934761;29;20046;-62
2022/09/15 14:22:58;;;;;;;1.75;1.50;;;;;;;20.26;75.91;99497.53;4933704;29;20047;-62
2022/09/15 14:25:26;;;;;;;2.00;1.50;;;;;;;20.08;71.92;99505.97;4934789;29;20407;-62
2022/09/15 14:27:54;;;;;;;2.28;1.70;;;;;;;20.03;75.14;99505.94;4934735;29;20043;-62
2022/09/15 14:30:30;;;;;;;3.92;1.75;;;;;;;20.03;78.76;99504.03;4949291;29;20047;-62
2022/09/15 14:33:00;;;;;;;2.13;1.85;;;;;;;19.83;72.46;99505.69;4934723;29;20039;-61
2022/09/15 14:35:32;;;;;;;4.15;1.42;;;;;;;19.76;74.14;99505.88;4934302;29;20058;-63
2022/09/15 14:37:59;;;;;;;3.63;1.88;;;;;;;19.85;76.96;99508.94;4932981;29;20572;-64
2022/09/15 14:40:32;;;;;;;4.95;2.17;;;;;;;19.84;76.01;99512.72;4934136;29;20119;-59
2022/09/15 14:42:58;;;;;;;3.05;1.48;;;;;;;19.66;73.16;99513.84;4934612;29;20044;-59
2022/09/15 14:45:36;;;;;;;2.08;1.40;;;;;;;19.52;74.64;99510.66;4934290;29;20131;-59
2022/09/15 14:48:06;;;;;;;3.55;1.90;;;;;;;19.56;74.14;99505.56;4949049;28;20625;-59
2022/09/15 14:50:32;;;;;;;3.35;1.85;;;;;;;19.51;73.26;99511.72;4934125;29;20054;-59
2022/09/15 14:53:15;;;;;;;3.75;2.15;;;;;;;19.55;75.17;99514.72;4934155;29;20086;-58
2022/09/15 14:56:05;;;;;;;2.78;1.45;;;;;;;19.50;74.59;99502.81;4934311;29;20039;-59
2022/09/15 14:58:41;;;;;;;1.95;1.35;;;;;;;19.39;75.02;99506.44;4934441;29;20118;-58
2022/09/15 15:01:24;;;;;;;1.97;1.40;;;;;;;19.43;76.54;99504.03;4933898;29;20031;-63
2022/09/15 15:03:59;;;;;;;3.10;1.60;;;;;;;19.47;77.04;99507.88;4934356;29;20039;-62
2022/09/15 15:06:33;;;;;;;1.73;1.40;;;;;;;19.51;75.98;99515.25;4934193;29;20062;-63
2022/09/15 15:09:17;;;;;;;3.13;1.50;;;;;;;19.46;76.72;99512.47;4934112;29;20038;-62
2022/09/15 15:11:43;;;;;;;3.90;1.80;;;;;;;19.48;77.04;99513.03;4933850;29;20035;-63
2022/09/15 15:14:13;;;;;;;2.60;1.75;;;;;;;19.44;75.16;99509.22;4934106;29;20128;-63
2022/09/15 15:16:50;;;;;;;2.40;1.60;;;;;;;19.51;76.62;99503.63;4933944;29;20050;-63
2022/09/15 15:19:29;;;;;;;;;;;;;;;19.47;77.29;99508.69;4934537;29;20079;-62
2022/09/15 15:22:06;;;;;;;2.67;1.75;;;;;;;19.49;76.12;99505.75;4933799;29;20403;-62
2022/09/15 15:24:31;;;;;;;3.63;2.28;;;;;;;19.43;74.17;99499.47;4934147;29;20046;-62
2022/09/15 15:26:56;;;;;;;2.13;1.70;;;;;;;19.46;75.29;99496.25;4934063;29;20040;-62
2022/09/15 15:29:41;;;;;;;3.35;2.03;;;;;;;19.51;77.08;99504.44;4934007;29;20036;-63
2022/09/15 15:32:16;;;;;;;2.05;1.48;;;;;;;19.35;77.19;99494.47;4933762;29;20032;-62
2022/09/15 15:34:54;;;;;;;3.05;1.85;;;;;;;19.26;76.21;99506.78;4934020;29;20035;-61
2022/09/15 15:37:25;;;;;;;2.70;2.30;;;;;;;19.15;76.07;99511.19;4933858;29;20098;-62
2022/09/15 15:39:51;;;;;;;2.55;1.90;;;;;;;19.01;76.96;99488.31;4934427;29;20047;-62
2022/09/15 15:42:16;;;;;;;2.45;1.88;;;;;;;19.06;77.29;99501.91;4948408;29;20044;-60
2022/09/15 15:45:18;;;;;;;2.72;1.90;;;;;;;18.92;77.51;99501.41;4933907;29;20142;-59
2022/09/15 15:47:43;;;;;;;4.00;2.22;;;;;;;18.91;78.86;99509.75;4934790;29;20036;-61
2022/09/15 15:50:21;;;;;;;2.95;1.83;;;;;;;18.91;79.01;99510.56;4937627;29;20040;-62
2022/09/15 15:52:50;;;;;;;4.43;1.95;;;;;;;18.92;79.51;99511.41;4937858;29;20051;-63
2022/09/15 15:55:21;;;;;;;4.25;2.17;;;;;;;18.93;78.80;99508.44;4937619;29;20399;-62
2022/09/15 15:57:49;;;;;;;2.55;1.75;;;;;;;18.91;78.88;99507.06;4937796;29;20131;-63
2022/09/15 16:00:22;;;;;;;5.88;2.03;;;;;;;18.94;79.11;99509.25;4937037;29;20107;-62
2022/09/15 16:02:52;;;;;;;3.03;1.88;;;;;;;18.89;79.08;99499.19;4937408;29;20491;-63
2022/09/15 16:05:20;;;;;;;5.15;2.20;;;;;;;18.89;78.21;99501.88;4937307;29;20035;-63
2022/09/15 16:07:49;;;;;;;3.00;1.70;;;;;;;18.77;78.28;99498.44;4937304;29;20177;-62
2022/09/15 16:10:21;;;;;;;2.13;1.88;;;;;;;18.80;78.35;99497.16;4935895;29;20053;-62
2022/09/15 16:12:47;;;;;;;3.15;2.00;;;;;;;18.76;77.53;99491.41;4937439;29;20098;-63